sensor_id;sensor_type;location;lat;lon;timestamp;P1;durP1;ratioP1;P2;durP2;ratioP2
22531;SDS011;11432;46.924;7.114;2022-12-18T00:01:21;26.48;;;15.15;;
22531;SDS011;11432;46.924;7.114;2022-12-18T00:03:53;25.50;;;14.90;;
22531;SDS011;11432;46.924;7.114;2022-12-18T00:06:20;24.27;;;14.27;;
22531;SDS011;11432;46.924;7.114;2022-12-18T00:08:46;24.95;;;14.40;;
22531;SDS011;11432;46.924;7.114;2022-12-18T00:11:19;23.50;;;14.00;;
22531;SDS011;11432;46.924;7.114;2022-12-18T00:13:46;23.98;;;15.35;;
22531;SDS011;11432;46.924;7.114;2022-12-18T00:16:14;26.33;;;15.40;;
22531;SDS011;11432;46.924;7.114;2022-12-18T00:18:43;23.73;;;14.10;;
22531;SDS011;11432;46.924;7.114;2022-12-18T00:21:09;24.13;;;14.98;;
22531;SDS011;11432;46.924;7.114;2022-12-18T00:23:36;25.45;;;15.13;;
22531;SDS011;11432;46.924;7.114;2022-12-18T00:26:06;26.63;;;15.32;;
22531;SDS011;11432;46.924;7.114;2022-12-18T00:28:34;25.10;;;14.75;;
22531;SDS011;11432;46.924;7.114;2022-12-18T00:31:04;26.38;;;15.38;;
22531;SDS011;11432;46.924;7.114;2022-12-18T00:33:32;24.80;;;14.27;;
22531;SDS011;11432;46.924;7.114;2022-12-18T00:36:01;23.67;;;14.43;;
22531;SDS011;11432;46.924;7.114;2022-12-18T00:38:32;24.70;;;14.70;;
22531;SDS011;11432;46.924;7.114;2022-12-18T00:40:57;23.50;;;14.65;;
22531;SDS011;11432;46.924;7.114;2022-12-18T00:43:23;25.08;;;15.32;;
22531;SDS011;11432;46.924;7.114;2022-12-18T00:45:49;24.42;;;14.05;;
22531;SDS011;11432;46.924;7.114;2022-12-18T00:48:14;26.88;;;15.48;;
22531;SDS011;11432;46.924;7.114;2022-12-18T00:50:40;25.42;;;14.80;;
22531;SDS011;11432;46.924;7.114;2022-12-18T00:53:06;26.27;;;15.07;;
22531;SDS011;11432;46.924;7.114;2022-12-18T00:55:32;26.00;;;15.75;;
22531;SDS011;11432;46.924;7.114;2022-12-18T00:57:57;24.08;;;14.18;;
22531;SDS011;11432;46.924;7.114;2022-12-18T01:00:23;24.25;;;14.75;;
22531;SDS011;11432;46.924;7.114;2022-12-18T01:02:48;26.52;;;15.32;;
22531;SDS011;11432;46.924;7.114;2022-12-18T01:05:14;26.23;;;15.02;;
22531;SDS011;11432;46.924;7.114;2022-12-18T01:07:39;26.48;;;14.85;;
22531;SDS011;11432;46.924;7.114;2022-12-18T01:10:06;23.70;;;13.70;;
22531;SDS011;11432;46.924;7.114;2022-12-18T01:12:32;24.85;;;15.02;;
22531;SDS011;11432;46.924;7.114;2022-12-18T01:14:58;26.05;;;14.63;;
22531;SDS011;11432;46.924;7.114;2022-12-18T01:17:24;25.55;;;15.30;;
22531;SDS011;11432;46.924;7.114;2022-12-18T01:19:50;24.67;;;14.13;;
22531;SDS011;11432;46.924;7.114;2022-12-18T01:22:15;27.38;;;15.07;;
22531;SDS011;11432;46.924;7.114;2022-12-18T01:24:41;27.77;;;15.20;;
22531;SDS011;11432;46.924;7.114;2022-12-18T01:27:06;24.77;;;14.38;;
22531;SDS011;11432;46.924;7.114;2022-12-18T01:29:32;24.77;;;14.63;;
22531;SDS011;11432;46.924;7.114;2022-12-18T01:31:58;25.52;;;14.40;;
22531;SDS011;11432;46.924;7.114;2022-12-18T01:34:23;23.92;;;14.32;;
22531;SDS011;11432;46.924;7.114;2022-12-18T01:36:49;25.50;;;14.25;;
22531;SDS011;11432;46.924;7.114;2022-12-18T01:39:17;25.58;;;14.55;;
22531;SDS011;11432;46.924;7.114;2022-12-18T01:41:44;24.45;;;13.68;;
22531;SDS011;11432;46.924;7.114;2022-12-18T01:47:20;26.52;;;13.85;;
22531;SDS011;11432;46.924;7.114;2022-12-18T01:50:11;23.77;;;14.07;;
22531;SDS011;11432;46.924;7.114;2022-12-18T01:55:22;26.45;;;14.68;;
22531;SDS011;11432;46.924;7.114;2022-12-18T01:57:55;22.45;;;13.60;;
22531;SDS011;11432;46.924;7.114;2022-12-18T02:00:23;25.13;;;13.90;;
22531;SDS011;11432;46.924;7.114;2022-12-18T02:02:49;23.30;;;13.80;;
22531;SDS011;11432;46.924;7.114;2022-12-18T02:05:16;26.50;;;13.90;;
22531;SDS011;11432;46.924;7.114;2022-12-18T02:10:36;24.00;;;13.45;;
22531;SDS011;11432;46.924;7.114;2022-12-18T02:15:40;25.15;;;13.40;;
22531;SDS011;11432;46.924;7.114;2022-12-18T02:18:28;24.38;;;13.60;;
22531;SDS011;11432;46.924;7.114;2022-12-18T02:21:08;25.05;;;13.95;;
22531;SDS011;11432;46.924;7.114;2022-12-18T02:26:30;24.17;;;12.68;;
22531;SDS011;11432;46.924;7.114;2022-12-18T02:29:12;22.10;;;13.15;;
22531;SDS011;11432;46.924;7.114;2022-12-18T02:31:56;23.98;;;12.80;;
22531;SDS011;11432;46.924;7.114;2022-12-18T02:34:26;22.48;;;12.60;;
22531;SDS011;11432;46.924;7.114;2022-12-18T02:36:55;21.27;;;12.02;;
22531;SDS011;11432;46.924;7.114;2022-12-18T02:39:23;20.40;;;11.95;;
22531;SDS011;11432;46.924;7.114;2022-12-18T02:41:51;20.80;;;12.33;;
22531;SDS011;11432;46.924;7.114;2022-12-18T02:44:17;22.63;;;12.10;;
22531;SDS011;11432;46.924;7.114;2022-12-18T02:46:44;22.90;;;13.15;;
22531;SDS011;11432;46.924;7.114;2022-12-18T02:54:40;21.55;;;11.43;;
22531;SDS011;11432;46.924;7.114;2022-12-18T02:57:14;20.77;;;11.90;;
22531;SDS011;11432;46.924;7.114;2022-12-18T03:00:19;20.40;;;11.68;;
22531;SDS011;11432;46.924;7.114;2022-12-18T03:02:56;19.77;;;11.43;;
22531;SDS011;11432;46.924;7.114;2022-12-18T03:05:31;19.23;;;11.18;;
22531;SDS011;11432;46.924;7.114;2022-12-18T03:10:34;19.35;;;11.52;;
22531;SDS011;11432;46.924;7.114;2022-12-18T03:13:07;21.13;;;11.00;;
22531;SDS011;11432;46.924;7.114;2022-12-18T03:15:39;18.73;;;11.65;;
22531;SDS011;11432;46.924;7.114;2022-12-18T03:18:10;21.63;;;11.73;;
22531;SDS011;11432;46.924;7.114;2022-12-18T03:20:56;20.90;;;12.27;;
22531;SDS011;11432;46.924;7.114;2022-12-18T03:23:25;21.00;;;11.35;;
22531;SDS011;11432;46.924;7.114;2022-12-18T03:25:56;19.35;;;11.40;;
22531;SDS011;11432;46.924;7.114;2022-12-18T03:28:25;21.58;;;11.20;;
22531;SDS011;11432;46.924;7.114;2022-12-18T03:30:56;18.60;;;10.88;;
22531;SDS011;11432;46.924;7.114;2022-12-18T03:33:25;20.00;;;10.83;;
22531;SDS011;11432;46.924;7.114;2022-12-18T03:35:55;19.65;;;10.70;;
22531;SDS011;11432;46.924;7.114;2022-12-18T03:38:21;17.67;;;10.82;;
22531;SDS011;11432;46.924;7.114;2022-12-18T03:46:20;22.88;;;10.82;;
22531;SDS011;11432;46.924;7.114;2022-12-18T03:48:59;18.50;;;10.27;;
22531;SDS011;11432;46.924;7.114;2022-12-18T03:51:35;20.75;;;10.63;;
22531;SDS011;11432;46.924;7.114;2022-12-18T03:54:22;17.50;;;10.70;;
22531;SDS011;11432;46.924;7.114;2022-12-18T03:56:52;16.20;;;10.38;;
22531;SDS011;11432;46.924;7.114;2022-12-18T03:59:24;18.33;;;9.90;;
22531;SDS011;11432;46.924;7.114;2022-12-18T04:01:52;18.45;;;10.30;;
22531;SDS011;11432;46.924;7.114;2022-12-18T04:04:20;18.38;;;10.27;;
22531;SDS011;11432;46.924;7.114;2022-12-18T04:06:48;18.50;;;10.23;;
22531;SDS011;11432;46.924;7.114;2022-12-18T04:09:15;15.85;;;9.65;;
22531;SDS011;11432;46.924;7.114;2022-12-18T04:11:41;17.17;;;10.63;;
22531;SDS011;11432;46.924;7.114;2022-12-18T04:14:08;18.95;;;9.35;;
22531;SDS011;11432;46.924;7.114;2022-12-18T04:16:34;17.27;;;9.80;;
22531;SDS011;11432;46.924;7.114;2022-12-18T04:19:00;17.05;;;9.30;;
22531;SDS011;11432;46.924;7.114;2022-12-18T04:21:26;16.02;;;9.52;;
22531;SDS011;11432;46.924;7.114;2022-12-18T04:23:51;15.07;;;9.13;;
22531;SDS011;11432;46.924;7.114;2022-12-18T04:26:17;15.75;;;9.45;;
22531;SDS011;11432;46.924;7.114;2022-12-18T04:28:43;17.50;;;9.07;;
22531;SDS011;11432;46.924;7.114;2022-12-18T04:31:08;16.33;;;9.32;;
22531;SDS011;11432;46.924;7.114;2022-12-18T04:33:34;15.55;;;8.77;;
22531;SDS011;11432;46.924;7.114;2022-12-18T04:35:59;15.85;;;8.93;;
22531;SDS011;11432;46.924;7.114;2022-12-18T04:38:25;17.42;;;9.43;;
22531;SDS011;11432;46.924;7.114;2022-12-18T04:40:51;13.45;;;8.57;;
22531;SDS011;11432;46.924;7.114;2022-12-18T04:43:16;17.30;;;9.63;;
22531;SDS011;11432;46.924;7.114;2022-12-18T04:45:42;17.52;;;8.52;;
22531;SDS011;11432;46.924;7.114;2022-12-18T04:48:07;14.52;;;8.55;;
22531;SDS011;11432;46.924;7.114;2022-12-18T04:50:33;16.25;;;8.82;;
22531;SDS011;11432;46.924;7.114;2022-12-18T04:52:59;14.63;;;8.52;;
22531;SDS011;11432;46.924;7.114;2022-12-18T04:55:24;15.13;;;9.23;;
22531;SDS011;11432;46.924;7.114;2022-12-18T04:57:50;14.93;;;9.32;;
22531;SDS011;11432;46.924;7.114;2022-12-18T05:00:16;17.35;;;8.75;;
22531;SDS011;11432;46.924;7.114;2022-12-18T05:02:42;15.90;;;9.13;;
22531;SDS011;11432;46.924;7.114;2022-12-18T05:05:08;15.60;;;9.30;;
22531;SDS011;11432;46.924;7.114;2022-12-18T05:07:33;14.98;;;9.13;;
22531;SDS011;11432;46.924;7.114;2022-12-18T05:09:59;15.55;;;9.45;;
22531;SDS011;11432;46.924;7.114;2022-12-18T05:12:25;14.52;;;8.40;;
22531;SDS011;11432;46.924;7.114;2022-12-18T05:14:50;16.95;;;9.32;;
22531;SDS011;11432;46.924;7.114;2022-12-18T05:17:16;15.77;;;8.70;;
22531;SDS011;11432;46.924;7.114;2022-12-18T05:19:42;16.13;;;9.55;;
22531;SDS011;11432;46.924;7.114;2022-12-18T05:22:07;15.07;;;8.25;;
22531;SDS011;11432;46.924;7.114;2022-12-18T05:24:33;15.43;;;8.95;;
22531;SDS011;11432;46.924;7.114;2022-12-18T05:26:59;16.52;;;9.18;;
22531;SDS011;11432;46.924;7.114;2022-12-18T05:29:25;16.73;;;9.82;;
22531;SDS011;11432;46.924;7.114;2022-12-18T05:31:50;14.23;;;8.45;;
22531;SDS011;11432;46.924;7.114;2022-12-18T05:34:16;16.73;;;9.32;;
22531;SDS011;11432;46.924;7.114;2022-12-18T05:36:41;16.27;;;9.35;;
22531;SDS011;11432;46.924;7.114;2022-12-18T05:39:07;14.43;;;8.65;;
22531;SDS011;11432;46.924;7.114;2022-12-18T05:41:33;16.30;;;9.02;;
22531;SDS011;11432;46.924;7.114;2022-12-18T05:43:59;17.80;;;10.18;;
22531;SDS011;11432;46.924;7.114;2022-12-18T05:46:25;16.45;;;9.13;;
22531;SDS011;11432;46.924;7.114;2022-12-18T05:48:51;17.75;;;9.60;;
22531;SDS011;11432;46.924;7.114;2022-12-18T05:51:17;17.77;;;9.88;;
22531;SDS011;11432;46.924;7.114;2022-12-18T05:53:45;16.63;;;9.45;;
22531;SDS011;11432;46.924;7.114;2022-12-18T05:56:12;17.27;;;9.75;;
22531;SDS011;11432;46.924;7.114;2022-12-18T05:58:41;15.70;;;9.05;;
22531;SDS011;11432;46.924;7.114;2022-12-18T06:03:34;14.38;;;8.02;;
22531;SDS011;11432;46.924;7.114;2022-12-18T06:06:00;16.52;;;8.68;;
22531;SDS011;11432;46.924;7.114;2022-12-18T06:08:25;14.07;;;8.38;;
22531;SDS011;11432;46.924;7.114;2022-12-18T06:10:51;15.63;;;8.77;;
22531;SDS011;11432;46.924;7.114;2022-12-18T06:13:18;14.77;;;8.63;;
22531;SDS011;11432;46.924;7.114;2022-12-18T06:15:44;16.90;;;9.40;;
22531;SDS011;11432;46.924;7.114;2022-12-18T06:18:10;16.90;;;9.07;;
22531;SDS011;11432;46.924;7.114;2022-12-18T06:20:35;14.38;;;8.57;;
22531;SDS011;11432;46.924;7.114;2022-12-18T06:23:04;14.23;;;8.57;;
22531;SDS011;11432;46.924;7.114;2022-12-18T06:25:30;15.35;;;9.05;;
22531;SDS011;11432;46.924;7.114;2022-12-18T06:27:56;16.23;;;8.65;;
22531;SDS011;11432;46.924;7.114;2022-12-18T06:30:22;15.35;;;8.98;;
22531;SDS011;11432;46.924;7.114;2022-12-18T06:32:48;14.68;;;8.95;;
22531;SDS011;11432;46.924;7.114;2022-12-18T06:35:14;14.70;;;8.68;;
22531;SDS011;11432;46.924;7.114;2022-12-18T06:37:40;17.05;;;10.55;;
22531;SDS011;11432;46.924;7.114;2022-12-18T06:40:05;15.85;;;8.98;;
22531;SDS011;11432;46.924;7.114;2022-12-18T06:42:31;13.73;;;8.43;;
22531;SDS011;11432;46.924;7.114;2022-12-18T06:44:57;15.23;;;8.93;;
22531;SDS011;11432;46.924;7.114;2022-12-18T06:47:23;17.38;;;8.43;;
22531;SDS011;11432;46.924;7.114;2022-12-18T06:49:48;15.75;;;8.48;;
22531;SDS011;11432;46.924;7.114;2022-12-18T06:52:14;14.57;;;8.82;;
22531;SDS011;11432;46.924;7.114;2022-12-18T06:54:41;13.45;;;8.20;;
22531;SDS011;11432;46.924;7.114;2022-12-18T06:57:06;13.65;;;8.25;;
22531;SDS011;11432;46.924;7.114;2022-12-18T06:59:32;14.02;;;8.13;;
22531;SDS011;11432;46.924;7.114;2022-12-18T07:01:58;13.90;;;8.60;;
22531;SDS011;11432;46.924;7.114;2022-12-18T07:04:27;15.13;;;8.38;;
22531;SDS011;11432;46.924;7.114;2022-12-18T07:06:56;15.10;;;9.05;;
22531;SDS011;11432;46.924;7.114;2022-12-18T07:09:22;14.70;;;8.65;;
22531;SDS011;11432;46.924;7.114;2022-12-18T07:11:48;14.93;;;8.82;;
22531;SDS011;11432;46.924;7.114;2022-12-18T07:14:14;15.50;;;9.05;;
22531;SDS011;11432;46.924;7.114;2022-12-18T07:16:39;14.55;;;8.65;;
22531;SDS011;11432;46.924;7.114;2022-12-18T07:19:05;16.38;;;9.30;;
22531;SDS011;11432;46.924;7.114;2022-12-18T07:21:31;17.95;;;10.32;;
22531;SDS011;11432;46.924;7.114;2022-12-18T07:23:56;16.77;;;9.80;;
22531;SDS011;11432;46.924;7.114;2022-12-18T07:26:22;17.02;;;9.30;;
22531;SDS011;11432;46.924;7.114;2022-12-18T07:28:48;21.98;;;10.98;;
22531;SDS011;11432;46.924;7.114;2022-12-18T07:31:15;26.23;;;13.60;;
22531;SDS011;11432;46.924;7.114;2022-12-18T07:33:43;15.98;;;9.60;;
22531;SDS011;11432;46.924;7.114;2022-12-18T07:36:09;15.55;;;9.05;;
22531;SDS011;11432;46.924;7.114;2022-12-18T07:38:35;14.65;;;8.68;;
22531;SDS011;11432;46.924;7.114;2022-12-18T07:41:05;15.13;;;8.63;;
22531;SDS011;11432;46.924;7.114;2022-12-18T07:43:32;16.55;;;8.93;;
22531;SDS011;11432;46.924;7.114;2022-12-18T07:45:58;15.88;;;8.90;;
22531;SDS011;11432;46.924;7.114;2022-12-18T07:48:24;14.02;;;8.52;;
22531;SDS011;11432;46.924;7.114;2022-12-18T07:50:50;16.15;;;9.13;;
22531;SDS011;11432;46.924;7.114;2022-12-18T07:53:15;14.70;;;9.27;;
22531;SDS011;11432;46.924;7.114;2022-12-18T07:55:41;15.98;;;9.30;;
22531;SDS011;11432;46.924;7.114;2022-12-18T07:58:07;15.57;;;9.70;;
22531;SDS011;11432;46.924;7.114;2022-12-18T08:00:33;15.57;;;9.10;;
22531;SDS011;11432;46.924;7.114;2022-12-18T08:02:59;15.70;;;9.52;;
22531;SDS011;11432;46.924;7.114;2022-12-18T08:05:25;15.73;;;9.07;;
22531;SDS011;11432;46.924;7.114;2022-12-18T08:07:51;14.98;;;8.88;;
22531;SDS011;11432;46.924;7.114;2022-12-18T08:10:17;16.70;;;8.80;;
22531;SDS011;11432;46.924;7.114;2022-12-18T08:12:43;15.30;;;8.80;;
22531;SDS011;11432;46.924;7.114;2022-12-18T08:15:08;16.35;;;9.82;;
22531;SDS011;11432;46.924;7.114;2022-12-18T08:17:34;20.88;;;12.40;;
22531;SDS011;11432;46.924;7.114;2022-12-18T08:20:00;17.02;;;9.95;;
22531;SDS011;11432;46.924;7.114;2022-12-18T08:22:26;16.48;;;9.65;;
22531;SDS011;11432;46.924;7.114;2022-12-18T08:24:51;15.45;;;8.95;;
22531;SDS011;11432;46.924;7.114;2022-12-18T08:27:17;15.32;;;9.35;;
22531;SDS011;11432;46.924;7.114;2022-12-18T08:29:43;17.38;;;9.25;;
22531;SDS011;11432;46.924;7.114;2022-12-18T08:32:08;14.30;;;8.75;;
22531;SDS011;11432;46.924;7.114;2022-12-18T08:34:34;16.42;;;9.20;;
22531;SDS011;11432;46.924;7.114;2022-12-18T08:36:59;16.02;;;9.05;;
22531;SDS011;11432;46.924;7.114;2022-12-18T08:39:25;14.77;;;8.82;;
22531;SDS011;11432;46.924;7.114;2022-12-18T08:41:51;14.38;;;8.82;;
22531;SDS011;11432;46.924;7.114;2022-12-18T08:44:35;15.65;;;9.50;;
22531;SDS011;11432;46.924;7.114;2022-12-18T08:47:04;17.15;;;9.77;;
22531;SDS011;11432;46.924;7.114;2022-12-18T08:51:59;17.42;;;10.15;;
22531;SDS011;11432;46.924;7.114;2022-12-18T08:54:25;17.88;;;10.20;;
22531;SDS011;11432;46.924;7.114;2022-12-18T08:56:51;15.57;;;9.70;;
22531;SDS011;11432;46.924;7.114;2022-12-18T08:59:17;15.65;;;9.60;;
22531;SDS011;11432;46.924;7.114;2022-12-18T09:01:43;16.35;;;9.02;;
22531;SDS011;11432;46.924;7.114;2022-12-18T09:04:10;14.88;;;9.48;;
22531;SDS011;11432;46.924;7.114;2022-12-18T09:06:35;18.88;;;10.15;;
22531;SDS011;11432;46.924;7.114;2022-12-18T09:09:02;17.85;;;9.95;;
22531;SDS011;11432;46.924;7.114;2022-12-18T09:11:29;17.80;;;10.77;;
22531;SDS011;11432;46.924;7.114;2022-12-18T09:13:55;18.23;;;9.93;;
22531;SDS011;11432;46.924;7.114;2022-12-18T09:16:21;16.92;;;9.80;;
22531;SDS011;11432;46.924;7.114;2022-12-18T09:18:47;19.35;;;10.82;;
22531;SDS011;11432;46.924;7.114;2022-12-18T09:21:18;20.40;;;11.23;;
22531;SDS011;11432;46.924;7.114;2022-12-18T09:23:51;18.35;;;10.90;;
22531;SDS011;11432;46.924;7.114;2022-12-18T09:26:18;24.80;;;12.82;;
22531;SDS011;11432;46.924;7.114;2022-12-18T09:28:44;19.33;;;11.68;;
22531;SDS011;11432;46.924;7.114;2022-12-18T09:31:11;17.48;;;10.65;;
22531;SDS011;11432;46.924;7.114;2022-12-18T09:33:37;20.98;;;12.45;;
22531;SDS011;11432;46.924;7.114;2022-12-18T09:36:04;23.00;;;13.38;;
22531;SDS011;11432;46.924;7.114;2022-12-18T09:38:33;20.20;;;12.05;;
22531;SDS011;11432;46.924;7.114;2022-12-18T09:41:00;20.67;;;12.73;;
22531;SDS011;11432;46.924;7.114;2022-12-18T09:43:35;20.95;;;12.02;;
22531;SDS011;11432;46.924;7.114;2022-12-18T09:46:07;20.77;;;11.63;;
22531;SDS011;11432;46.924;7.114;2022-12-18T09:48:36;19.85;;;12.00;;
22531;SDS011;11432;46.924;7.114;2022-12-18T09:51:16;21.20;;;12.02;;
22531;SDS011;11432;46.924;7.114;2022-12-18T09:53:47;20.02;;;11.63;;
22531;SDS011;11432;46.924;7.114;2022-12-18T09:56:23;19.52;;;11.85;;
22531;SDS011;11432;46.924;7.114;2022-12-18T09:59:00;21.63;;;12.02;;
22531;SDS011;11432;46.924;7.114;2022-12-18T10:01:28;20.70;;;10.73;;
22531;SDS011;11432;46.924;7.114;2022-12-18T10:03:55;21.27;;;12.27;;
22531;SDS011;11432;46.924;7.114;2022-12-18T10:06:23;22.00;;;11.35;;
22531;SDS011;11432;46.924;7.114;2022-12-18T10:11:35;21.65;;;13.18;;
22531;SDS011;11432;46.924;7.114;2022-12-18T10:14:11;18.77;;;12.23;;
22531;SDS011;11432;46.924;7.114;2022-12-18T10:17:45;19.75;;;11.43;;
22531;SDS011;11432;46.924;7.114;2022-12-18T10:19:52;20.25;;;11.13;;
22531;SDS011;11432;46.924;7.114;2022-12-18T10:22:47;20.25;;;11.68;;
22531;SDS011;11432;46.924;7.114;2022-12-18T10:25:25;19.90;;;12.05;;
22531;SDS011;11432;46.924;7.114;2022-12-18T10:28:14;23.80;;;11.60;;
22531;SDS011;11432;46.924;7.114;2022-12-18T10:30:41;19.88;;;11.38;;
22531;SDS011;11432;46.924;7.114;2022-12-18T10:33:18;21.35;;;12.07;;
22531;SDS011;11432;46.924;7.114;2022-12-18T10:35:47;18.17;;;11.50;;
22531;SDS011;11432;46.924;7.114;2022-12-18T10:43:33;20.52;;;12.15;;
22531;SDS011;11432;46.924;7.114;2022-12-18T10:48:40;20.33;;;11.20;;
22531;SDS011;11432;46.924;7.114;2022-12-18T10:51:31;24.47;;;12.87;;
22531;SDS011;11432;46.924;7.114;2022-12-18T10:54:00;22.00;;;12.68;;
22531;SDS011;11432;46.924;7.114;2022-12-18T10:56:29;22.63;;;13.00;;
22531;SDS011;11432;46.924;7.114;2022-12-18T11:01:27;20.80;;;12.15;;
22531;SDS011;11432;46.924;7.114;2022-12-18T11:06:24;21.55;;;12.40;;
22531;SDS011;11432;46.924;7.114;2022-12-18T11:09:18;21.40;;;12.23;;
22531;SDS011;11432;46.924;7.114;2022-12-18T11:11:52;20.08;;;12.10;;
22531;SDS011;11432;46.924;7.114;2022-12-18T11:14:22;21.75;;;12.70;;
22531;SDS011;11432;46.924;7.114;2022-12-18T11:19:35;22.33;;;12.82;;
22531;SDS011;11432;46.924;7.114;2022-12-18T11:22:19;20.45;;;13.23;;
22531;SDS011;11432;46.924;7.114;2022-12-18T11:25:06;22.35;;;13.93;;
22531;SDS011;11432;46.924;7.114;2022-12-18T11:27:54;22.33;;;13.43;;
22531;SDS011;11432;46.924;7.114;2022-12-18T11:30:23;19.63;;;12.65;;
22531;SDS011;11432;46.924;7.114;2022-12-18T11:32:56;24.52;;;13.20;;
22531;SDS011;11432;46.924;7.114;2022-12-18T11:41:04;21.27;;;12.38;;
22531;SDS011;11432;46.924;7.114;2022-12-18T11:46:06;23.55;;;13.60;;
22531;SDS011;11432;46.924;7.114;2022-12-18T11:48:58;21.92;;;12.55;;
22531;SDS011;11432;46.924;7.114;2022-12-18T11:51:48;21.35;;;12.80;;
22531;SDS011;11432;46.924;7.114;2022-12-18T11:54:22;21.92;;;13.25;;
22531;SDS011;11432;46.924;7.114;2022-12-18T11:56:53;21.02;;;13.23;;
22531;SDS011;11432;46.924;7.114;2022-12-18T11:59:35;21.23;;;13.15;;
22531;SDS011;11432;46.924;7.114;2022-12-18T12:05:25;23.17;;;12.95;;
22531;SDS011;11432;46.924;7.114;2022-12-18T12:10:50;20.23;;;12.55;;
22531;SDS011;11432;46.924;7.114;2022-12-18T12:21:07;19.80;;;12.45;;
22531;SDS011;11432;46.924;7.114;2022-12-18T12:23:45;21.50;;;13.13;;
22531;SDS011;11432;46.924;7.114;2022-12-18T12:26:27;24.13;;;13.63;;
22531;SDS011;11432;46.924;7.114;2022-12-18T12:29:18;20.25;;;12.85;;
22531;SDS011;11432;46.924;7.114;2022-12-18T12:40:19;23.70;;;13.05;;
22531;SDS011;11432;46.924;7.114;2022-12-18T12:42:48;22.05;;;13.15;;
22531;SDS011;11432;46.924;7.114;2022-12-18T12:45:48;20.17;;;12.60;;
22531;SDS011;11432;46.924;7.114;2022-12-18T12:48:20;22.63;;;13.93;;
22531;SDS011;11432;46.924;7.114;2022-12-18T12:50:58;22.33;;;13.25;;
22531;SDS011;11432;46.924;7.114;2022-12-18T12:53:32;21.20;;;12.95;;
22531;SDS011;11432;46.924;7.114;2022-12-18T12:56:01;24.60;;;13.65;;
22531;SDS011;11432;46.924;7.114;2022-12-18T12:58:36;27.02;;;14.20;;
22531;SDS011;11432;46.924;7.114;2022-12-18T13:04:34;21.88;;;13.68;;
22531;SDS011;11432;46.924;7.114;2022-12-18T13:07:16;22.05;;;13.75;;
22531;SDS011;11432;46.924;7.114;2022-12-18T13:10:10;23.33;;;14.13;;
22531;SDS011;11432;46.924;7.114;2022-12-18T13:13:00;22.17;;;13.65;;
22531;SDS011;11432;46.924;7.114;2022-12-18T13:20:36;20.38;;;12.70;;
22531;SDS011;11432;46.924;7.114;2022-12-18T13:31:12;22.55;;;12.52;;
22531;SDS011;11432;46.924;7.114;2022-12-18T13:36:41;22.10;;;13.13;;
22531;SDS011;11432;46.924;7.114;2022-12-18T13:41:39;20.65;;;11.95;;
22531;SDS011;11432;46.924;7.114;2022-12-18T13:46:57;22.67;;;12.85;;
22531;SDS011;11432;46.924;7.114;2022-12-18T13:49:40;21.30;;;12.65;;
22531;SDS011;11432;46.924;7.114;2022-12-18T13:52:15;22.05;;;12.65;;
22531;SDS011;11432;46.924;7.114;2022-12-18T13:54:43;20.52;;;12.85;;
22531;SDS011;11432;46.924;7.114;2022-12-18T13:59:55;22.60;;;13.18;;
22531;SDS011;11432;46.924;7.114;2022-12-18T14:02:25;20.35;;;12.48;;
22531;SDS011;11432;46.924;7.114;2022-12-18T14:04:53;22.02;;;13.10;;
22531;SDS011;11432;46.924;7.114;2022-12-18T14:07:23;20.20;;;12.45;;
22531;SDS011;11432;46.924;7.114;2022-12-18T14:09:54;21.65;;;12.80;;
22531;SDS011;11432;46.924;7.114;2022-12-18T14:12:26;23.25;;;12.82;;
22531;SDS011;11432;46.924;7.114;2022-12-18T14:20:48;20.90;;;12.70;;
22531;SDS011;11432;46.924;7.114;2022-12-18T14:26:00;24.08;;;13.25;;
22531;SDS011;11432;46.924;7.114;2022-12-18T14:28:46;21.25;;;12.63;;
22531;SDS011;11432;46.924;7.114;2022-12-18T14:31:19;22.33;;;13.05;;
22531;SDS011;11432;46.924;7.114;2022-12-18T14:33:46;20.30;;;12.35;;
22531;SDS011;11432;46.924;7.114;2022-12-18T14:36:14;20.58;;;12.70;;
22531;SDS011;11432;46.924;7.114;2022-12-18T14:38:42;22.05;;;13.25;;
22531;SDS011;11432;46.924;7.114;2022-12-18T14:41:12;20.63;;;12.13;;
22531;SDS011;11432;46.924;7.114;2022-12-18T14:43:40;21.80;;;12.05;;
22531;SDS011;11432;46.924;7.114;2022-12-18T14:48:55;18.35;;;10.85;;
22531;SDS011;11432;46.924;7.114;2022-12-18T14:51:22;18.80;;;10.77;;
22531;SDS011;11432;46.924;7.114;2022-12-18T14:53:53;18.38;;;10.63;;
22531;SDS011;11432;46.924;7.114;2022-12-18T14:56:23;19.35;;;10.50;;
22531;SDS011;11432;46.924;7.114;2022-12-18T15:01:21;20.00;;;10.52;;
22531;SDS011;11432;46.924;7.114;2022-12-18T15:03:52;17.60;;;10.60;;
22531;SDS011;11432;46.924;7.114;2022-12-18T15:06:35;17.48;;;10.32;;
22531;SDS011;11432;46.924;7.114;2022-12-18T15:09:18;18.80;;;10.45;;
22531;SDS011;11432;46.924;7.114;2022-12-18T15:11:49;18.95;;;10.90;;
22531;SDS011;11432;46.924;7.114;2022-12-18T15:14:35;17.92;;;10.55;;
22531;SDS011;11432;46.924;7.114;2022-12-18T15:17:06;20.55;;;11.27;;
22531;SDS011;11432;46.924;7.114;2022-12-18T15:19:44;22.63;;;11.40;;
22531;SDS011;11432;46.924;7.114;2022-12-18T15:22:15;19.10;;;11.45;;
22531;SDS011;11432;46.924;7.114;2022-12-18T15:24:45;22.02;;;12.23;;
22531;SDS011;11432;46.924;7.114;2022-12-18T15:27:20;21.75;;;12.05;;
22531;SDS011;11432;46.924;7.114;2022-12-18T15:29:58;19.90;;;10.90;;
22531;SDS011;11432;46.924;7.114;2022-12-18T15:32:34;21.23;;;11.05;;
22531;SDS011;11432;46.924;7.114;2022-12-18T15:37:35;19.48;;;10.48;;
22531;SDS011;11432;46.924;7.114;2022-12-18T15:40:02;17.98;;;10.70;;
22531;SDS011;11432;46.924;7.114;2022-12-18T15:42:28;18.73;;;10.23;;
22531;SDS011;11432;46.924;7.114;2022-12-18T15:45:13;19.17;;;10.70;;
22531;SDS011;11432;46.924;7.114;2022-12-18T15:47:39;23.25;;;12.73;;
22531;SDS011;11432;46.924;7.114;2022-12-18T15:50:07;21.00;;;11.27;;
22531;SDS011;11432;46.924;7.114;2022-12-18T15:52:36;19.73;;;10.27;;
22531;SDS011;11432;46.924;7.114;2022-12-18T15:55:17;18.30;;;9.98;;
22531;SDS011;11432;46.924;7.114;2022-12-18T15:58:03;17.75;;;9.60;;
22531;SDS011;11432;46.924;7.114;2022-12-18T16:00:32;17.90;;;10.43;;
22531;SDS011;11432;46.924;7.114;2022-12-18T16:03:00;18.35;;;10.00;;
22531;SDS011;11432;46.924;7.114;2022-12-18T16:05:26;16.13;;;9.52;;
22531;SDS011;11432;46.924;7.114;2022-12-18T16:07:53;18.35;;;10.32;;
22531;SDS011;11432;46.924;7.114;2022-12-18T16:10:19;19.45;;;10.48;;
22531;SDS011;11432;46.924;7.114;2022-12-18T16:12:45;18.33;;;9.70;;
22531;SDS011;11432;46.924;7.114;2022-12-18T16:15:12;19.58;;;10.82;;
22531;SDS011;11432;46.924;7.114;2022-12-18T16:17:40;22.98;;;10.30;;
22531;SDS011;11432;46.924;7.114;2022-12-18T16:20:14;15.73;;;9.30;;
22531;SDS011;11432;46.924;7.114;2022-12-18T16:22:41;15.68;;;9.52;;
22531;SDS011;11432;46.924;7.114;2022-12-18T16:27:42;17.35;;;9.98;;
22531;SDS011;11432;46.924;7.114;2022-12-18T16:30:11;18.48;;;10.65;;
22531;SDS011;11432;46.924;7.114;2022-12-18T16:32:38;18.00;;;10.18;;
22531;SDS011;11432;46.924;7.114;2022-12-18T16:35:04;19.42;;;9.90;;
22531;SDS011;11432;46.924;7.114;2022-12-18T16:37:30;18.08;;;9.93;;
22531;SDS011;11432;46.924;7.114;2022-12-18T16:39:55;17.70;;;9.95;;
22531;SDS011;11432;46.924;7.114;2022-12-18T16:42:21;16.55;;;9.77;;
22531;SDS011;11432;46.924;7.114;2022-12-18T16:44:47;18.15;;;9.85;;
22531;SDS011;11432;46.924;7.114;2022-12-18T16:47:14;16.40;;;9.95;;
22531;SDS011;11432;46.924;7.114;2022-12-18T16:49:41;19.73;;;11.52;;